Time;durP1;ratioP1;P1;durP2;ratioP2;P2;SDS_P1;SDS_P2;PMS_P1;PMS_P2;Temp;Humidity;BMP_temperature;BMP_pressure;BME280_temperature;BME280_humidity;BME280_pressure;Samples;Min_cycle;Max_cycle;Signal;HPM_P1;HPM_P2
2022/04/15 00:02:01;;;;;;;12.60;11.33;;;11.40;99.90;;;;;;4990177;28;20265;-67
2022/04/15 00:04:28;;;;;;;14.43;12.47;;;11.40;99.90;;;;;;4990245;28;20297;-67
2022/04/15 00:06:55;;;;;;;13.40;12.10;;;11.30;99.90;;;;;;5001389;28;20366;-67
2022/04/15 00:09:22;;;;;;;13.60;12.30;;;11.30;99.90;;;;;;4995948;28;20206;-67
2022/04/15 00:11:48;;;;;;;13.53;12.17;;;11.20;99.90;;;;;;4999882;28;20201;-67
2022/04/15 00:14:15;;;;;;;12.97;11.77;;;11.20;99.90;;;;;;5009209;28;20202;-66
2022/04/15 00:16:43;;;;;;;13.67;12.23;;;11.30;99.90;;;;;;5009574;28;20234;-67
2022/04/15 00:19:11;;;;;;;13.33;11.90;;;11.40;99.90;;;;;;5009025;28;20566;-67
2022/04/15 00:21:38;;;;;;;13.00;11.70;;;11.40;99.90;;;;;;5009539;28;20233;-67
2022/04/15 00:24:06;;;;;;;12.83;11.57;;;11.40;99.90;;;;;;5009435;28;20223;-68
2022/04/15 00:26:32;;;;;;;12.90;11.67;;;11.40;99.90;;;;;;5009335;28;20210;-66
2022/04/15 00:28:59;;;;;;;14.57;12.10;;;11.40;99.90;;;;;;5007650;28;20287;-66
2022/04/15 00:31:26;;;;;;;12.10;11.00;;;11.50;99.90;;;;;;5009089;28;21010;-67
2022/04/15 00:33:54;;;;;;;13.30;11.67;;;11.40;99.90;;;;;;5009178;28;20217;-67
2022/04/15 00:36:20;;;;;;;11.77;10.67;;;11.40;99.90;;;;;;5009197;28;20233;-68
2022/04/15 00:38:47;;;;;;;11.80;10.80;;;11.40;99.90;;;;;;5009492;28;20620;-70
2022/04/15 00:41:15;;;;;;;12.33;10.00;;;11.50;99.90;;;;;;5008642;28;20201;-69
2022/04/15 00:43:41;;;;;;;11.03;10.10;;;11.50;99.90;;;;;;5003456;28;20214;-69
2022/04/15 00:46:08;;;;;;;12.07;9.63;;;11.50;99.90;;;;;;5003891;28;20229;-69
2022/04/15 00:48:36;;;;;;;11.77;10.20;;;11.40;99.90;;;;;;5009099;28;20205;-69
2022/04/15 00:51:07;;;;;;;10.90;9.30;;;11.40;99.90;;;;;;5008414;28;20719;-69
2022/04/15 00:53:38;;;;;;;9.93;8.93;;;11.40;99.90;;;;;;5008435;28;20240;-70
2022/04/15 00:56:08;;;;;;;9.37;8.57;;;11.20;99.90;;;;;;5008309;28;20676;-70
2022/04/15 00:58:36;;;;;;;9.00;8.10;;;11.20;99.90;;;;;;5008941;28;20217;-70
2022/04/15 01:01:07;;;;;;;7.80;7.00;;;11.00;99.90;;;;;;4994614;28;20222;-70
2022/04/15 01:03:36;;;;;;;8.70;7.87;;;11.00;99.90;;;;;;5004600;28;20267;-70
2022/04/15 01:06:09;;;;;;;7.80;7.10;;;11.00;99.90;;;;;;5007553;28;20271;-70
2022/04/15 01:08:39;;;;;;;8.17;7.30;;;10.90;99.90;;;;;;5008120;28;20206;-70
2022/04/15 01:11:08;;;;;;;8.10;7.33;;;10.90;99.90;;;;;;5008332;28;20296;-70
2022/04/15 01:13:38;;;;;;;8.03;7.23;;;10.80;99.90;;;;;;5008204;28;20207;-70
2022/04/15 01:16:09;;;;;;;8.57;7.43;;;10.80;99.90;;;;;;5005348;28;20591;-70
2022/04/15 01:18:35;;;;;;;7.30;6.60;;;10.60;99.90;;;;;;5001859;28;20233;-70
2022/04/15 01:21:06;;;;;;;7.43;6.70;;;10.50;99.90;;;;;;5007804;28;20201;-70
2022/04/15 01:23:34;;;;;;;7.90;6.30;;;10.50;99.90;;;;;;5006742;28;20205;-68
2022/04/15 01:26:01;;;;;;;8.20;6.97;;;10.40;99.90;;;;;;5008042;28;20275;-68
2022/04/15 01:28:27;;;;;;;8.20;6.37;;;10.20;99.90;;;;;;4994308;28;20217;-68
2022/04/15 01:30:54;;;;;;;9.93;6.60;;;10.10;99.90;;;;;;5006675;28;20256;-68
2022/04/15 01:33:21;;;;;;;9.97;7.00;;;10.10;99.90;;;;;;5007542;28;21065;-68
2022/04/15 01:35:47;;;;;;;8.67;6.60;;;10.00;99.90;;;;;;5005800;28;20209;-68
2022/04/15 01:38:17;;;;;;;9.17;6.63;;;9.90;99.90;;;;;;5007592;28;20209;-68
2022/04/15 01:40:45;;;;;;;7.63;6.57;;;9.90;99.90;;;;;;4991685;28;20941;-68
2022/04/15 01:43:12;;;;;;;7.90;6.80;;;9.90;99.90;;;;;;4988909;28;20202;-68
2022/04/15 01:45:39;;;;;;;9.23;6.27;;;9.80;99.90;;;;;;4996531;28;20220;-68
2022/04/15 01:48:06;;;;;;;10.43;7.63;;;9.70;99.90;;;;;;5007464;28;20205;-68
2022/04/15 01:50:32;;;;;;;8.10;7.33;;;9.70;99.90;;;;;;5005953;28;20241;-68
2022/04/15 01:52:59;;;;;;;7.23;6.70;;;9.70;99.90;;;;;;5006463;28;20206;-67
2022/04/15 01:55:26;;;;;;;7.50;6.80;;;9.90;99.90;;;;;;5007122;28;20611;-66
2022/04/15 01:57:54;;;;;;;9.17;6.43;;;9.60;99.90;;;;;;5006961;28;20702;-65
2022/04/15 02:00:21;;;;;;;7.20;6.60;;;9.50;99.90;;;;;;5006511;28;20209;-67
2022/04/15 02:02:48;;;;;;;8.60;6.87;;;9.60;99.90;;;;;;5007284;28;20209;-67
2022/04/15 02:05:14;;;;;;;9.40;7.00;;;9.70;99.90;;;;;;5006081;28;20683;-67
2022/04/15 02:07:41;;;;;;;7.97;6.63;;;9.60;99.90;;;;;;5007212;28;20206;-67
2022/04/15 02:10:09;;;;;;;7.30;6.70;;;9.60;99.90;;;;;;5007134;28;20271;-67
2022/04/15 02:12:36;;;;;;;7.43;6.53;;;9.40;99.90;;;;;;5007967;28;20349;-67
2022/04/15 02:15:05;;;;;;;6.90;6.20;;;9.40;99.90;;;;;;5003944;28;20631;-67
2022/04/15 02:17:32;;;;;;;8.03;6.50;;;9.30;99.90;;;;;;5001687;28;20264;-69
2022/04/15 02:19:58;;;;;;;7.60;6.60;;;9.30;99.90;;;;;;5006161;28;20225;-68
2022/04/15 02:22:25;;;;;;;9.33;6.13;;;9.30;99.90;;;;;;5007752;28;20232;-68
2022/04/15 02:24:52;;;;;;;6.57;6.07;;;9.40;99.90;;;;;;5005295;28;20739;-68
2022/04/15 02:27:18;;;;;;;8.50;7.00;;;9.50;99.90;;;;;;5001342;28;20207;-69
2022/04/15 02:29:45;;;;;;;7.47;6.53;;;9.50;99.90;;;;;;5005273;28;20244;-68
2022/04/15 02:32:13;;;;;;;7.27;6.57;;;9.50;99.90;;;;;;5007096;28;20213;-68
2022/04/15 02:34:40;;;;;;;8.90;7.80;;;9.50;99.90;;;;;;5006168;28;20668;-68
2022/04/15 02:37:06;;;;;;;8.67;6.97;;;9.40;99.90;;;;;;5003673;28;20241;-68
2022/04/15 02:39:33;;;;;;;6.70;6.10;;;9.30;99.90;;;;;;4998650;28;20233;-68
2022/04/15 02:42:00;;;;;;;7.33;6.70;;;9.20;99.90;;;;;;5003364;28;20244;-68
2022/04/15 02:44:28;;;;;;;8.20;7.40;;;9.10;99.90;;;;;;5010465;28;20289;-68
2022/04/15 02:46:57;;;;;;;7.90;7.10;;;9.20;99.90;;;;;;5009991;28;20221;-68
2022/04/15 02:49:25;;;;;;;7.40;6.80;;;9.20;99.90;;;;;;5010262;28;20205;-67
2022/04/15 02:51:52;;;;;;;7.93;7.17;;;9.20;99.90;;;;;;5010115;28;20237;-67
2022/04/15 02:54:18;;;;;;;7.93;7.20;;;9.20;99.90;;;;;;5009637;28;20205;-67
2022/04/15 02:56:45;;;;;;;7.43;6.70;;;9.20;99.90;;;;;;5010444;28;20311;-67
2022/04/15 02:59:11;;;;;;;7.57;6.83;;;9.30;99.90;;;;;;5009694;28;20209;-67
2022/04/15 03:01:38;;;;;;;6.83;6.27;;;9.20;99.90;;;;;;5009404;28;20210;-67
2022/04/15 03:04:05;;;;;;;8.20;6.87;;;9.30;99.90;;;;;;5010280;28;20205;-67
2022/04/15 03:06:33;;;;;;;7.83;7.10;;;9.20;99.90;;;;;;5009863;28;20217;-67
2022/04/15 03:08:59;;;;;;;7.77;7.00;;;9.20;99.90;;;;;;5010338;28;20221;-67
2022/04/15 03:11:26;;;;;;;7.43;6.77;;;9.20;99.90;;;;;;5010365;28;20206;-68
2022/04/15 03:13:53;;;;;;;8.57;7.77;;;9.20;99.90;;;;;;5010176;28;20284;-68
2022/04/15 03:16:19;;;;;;;7.80;7.10;;;9.30;99.90;;;;;;5009630;28;20664;-65
2022/04/15 03:18:46;;;;;;;7.77;7.17;;;9.20;99.90;;;;;;5009702;28;20212;-64
2022/04/15 03:21:13;;;;;;;8.70;7.93;;;9.20;99.90;;;;;;5007115;28;20672;-66
2022/04/15 03:23:42;;;;;;;8.30;7.37;;;9.20;99.90;;;;;;5010044;28;20244;-66
2022/04/15 03:26:09;;;;;;;7.63;7.03;;;9.20;99.90;;;;;;5005193;28;20202;-66
2022/04/15 03:28:37;;;;;;;7.40;6.80;;;9.20;99.90;;;;;;5008510;28;20214;-66
2022/04/15 03:31:06;;;;;;;7.80;7.10;;;9.30;99.90;;;;;;5001942;28;20233;-68
2022/04/15 03:33:32;;;;;;;7.60;6.97;;;9.40;99.90;;;;;;4997844;28;20263;-67
2022/04/15 03:35:59;;;;;;;8.23;7.37;;;9.30;99.90;;;;;;5003839;28;20620;-67
2022/04/15 03:38:26;;;;;;;8.87;7.97;;;9.30;99.90;;;;;;4999329;28;20233;-67
2022/04/15 03:40:54;;;;;;;9.00;8.10;;;9.30;99.90;;;;;;5009120;28;20256;-67
2022/04/15 03:43:20;;;;;;;8.37;7.57;;;9.30;99.90;;;;;;5009243;28;20248;-67
2022/04/15 03:45:47;;;;;;;7.93;7.17;;;9.20;99.90;;;;;;5009690;28;20287;-67
2022/04/15 03:48:13;;;;;;;9.73;7.43;;;9.20;99.90;;;;;;5009116;28;20221;-67
2022/04/15 03:50:40;;;;;;;9.27;8.10;;;9.20;99.90;;;;;;5008347;28;20242;-67
2022/04/15 03:53:07;;;;;;;8.57;7.77;;;9.20;99.90;;;;;;5008011;28;20252;-67
2022/04/15 03:55:33;;;;;;;8.07;7.37;;;9.20;99.90;;;;;;5009089;28;20214;-67
2022/04/15 03:58:01;;;;;;;8.30;7.53;;;9.10;99.90;;;;;;5009383;28;20230;-67
2022/04/15 04:00:28;;;;;;;8.37;7.10;;;9.00;99.90;;;;;;5008819;28;20651;-68
2022/04/15 04:02:55;;;;;;;8.30;7.40;;;9.00;99.90;;;;;;5003212;28;20234;-69
2022/04/15 04:05:22;;;;;;;8.57;7.67;;;9.10;99.90;;;;;;5009342;28;20797;-68
2022/04/15 04:07:49;;;;;;;8.10;7.40;;;9.00;99.90;;;;;;5009013;28;20287;-68
2022/04/15 04:10:16;;;;;;;8.83;7.53;;;9.20;99.90;;;;;;5008574;28;20676;-67
2022/04/15 04:12:45;;;;;;;8.20;7.30;;;9.20;99.90;;;;;;5003082;28;20206;-68
2022/04/15 04:15:14;;;;;;;7.87;7.17;;;9.20;99.90;;;;;;5006952;28;20683;-68
2022/04/15 04:17:40;;;;;;;7.23;6.63;;;9.20;99.90;;;;;;5009594;28;20236;-67
2022/04/15 04:20:09;;;;;;;7.47;6.77;;;9.20;99.90;;;;;;4996461;28;20260;-67
2022/04/15 04:22:38;;;;;;;7.00;6.47;;;9.20;99.90;;;;;;5007962;28;20676;-67
2022/04/15 04:25:08;;;;;;;8.67;7.50;;;9.20;99.90;;;;;;5008861;28;20250;-67
2022/04/15 04:27:35;;;;;;;7.93;7.00;;;9.20;99.90;;;;;;5007820;28;20225;-67
2022/04/15 04:30:01;;;;;;;7.43;6.70;;;9.20;99.90;;;;;;5003766;28;20206;-67
2022/04/15 04:32:29;;;;;;;7.93;7.13;;;9.30;99.90;;;;;;4996179;28;20264;-67
2022/04/15 04:34:56;;;;;;;6.77;6.17;;;9.40;99.90;;;;;;5008769;28;20206;-67
2022/04/15 04:37:23;;;;;;;6.70;6.20;;;9.40;99.90;;;;;;5008417;28;20237;-67
2022/04/15 04:39:50;;;;;;;7.23;6.53;;;9.30;99.90;;;;;;5005775;28;20941;-66
2022/04/15 04:42:16;;;;;;;7.40;6.80;;;9.20;99.90;;;;;;5003786;28;20202;-67
2022/04/15 04:44:43;;;;;;;7.23;6.63;;;9.30;99.90;;;;;;4997373;28;20258;-66
2022/04/15 04:47:10;;;;;;;6.77;6.17;;;9.20;99.90;;;;;;5007625;28;20205;-67
2022/04/15 04:49:39;;;;;;;7.43;6.67;;;9.20;99.90;;;;;;5008137;28;20220;-66
2022/04/15 04:52:06;;;;;;;8.63;5.93;;;9.20;99.90;;;;;;5007767;28;20296;-66
2022/04/15 04:54:33;;;;;;;6.93;6.33;;;9.20;99.90;;;;;;5008255;28;20210;-65
2022/04/15 04:57:00;;;;;;;7.83;6.63;;;9.20;99.90;;;;;;4992633;28;20316;-65
2022/04/15 04:59:29;;;;;;;8.13;6.63;;;9.10;99.90;;;;;;5007759;28;20255;-65
2022/04/15 05:01:55;;;;;;;7.47;6.70;;;9.10;99.90;;;;;;5008556;28;20213;-65
2022/04/15 05:04:22;;;;;;;7.40;6.70;;;9.10;99.90;;;;;;5006707;28;20256;-65
2022/04/15 05:06:51;;;;;;;7.20;6.60;;;9.20;99.90;;;;;;5007836;28;20561;-65
2022/04/15 05:09:18;;;;;;;6.67;6.17;;;9.20;99.90;;;;;;5004453;28;20202;-65
2022/04/15 05:11:45;;;;;;;7.23;6.63;;;9.20;99.90;;;;;;5008003;28;20224;-65
2022/04/15 05:14:11;;;;;;;6.90;6.27;;;9.10;99.90;;;;;;5006796;28;20263;-65
2022/04/15 05:16:38;;;;;;;7.07;6.37;;;9.20;99.90;;;;;;5007041;28;20220;-69
2022/04/15 05:19:05;;;;;;;8.57;7.77;;;9.10;99.90;;;;;;4994683;28;20770;-68
2022/04/15 05:21:31;;;;;;;8.20;7.40;;;9.10;99.90;;;;;;5006940;28;20209;-67
2022/04/15 05:23:59;;;;;;;7.27;6.57;;;9.20;99.90;;;;;;5006191;28;20225;-67
2022/04/15 05:26:26;;;;;;;7.97;7.27;;;9.20;99.90;;;;;;5001722;28;20206;-67
2022/04/15 05:28:52;;;;;;;7.63;6.90;;;9.20;99.90;;;;;;5003929;28;20213;-67
2022/04/15 05:31:19;;;;;;;8.30;7.50;;;9.20;99.90;;;;;;4997638;28;20206;-67
2022/04/15 05:33:46;;;;;;;8.67;7.40;;;9.10;99.90;;;;;;5006659;28;20210;-67
2022/04/15 05:36:12;;;;;;;8.73;6.57;;;9.10;99.90;;;;;;5007657;28;20209;-66
2022/04/15 05:38:39;;;;;;;7.43;6.83;;;9.10;99.90;;;;;;5001534;28;20301;-67
2022/04/15 05:41:08;;;;;;;7.60;6.90;;;9.10;99.90;;;;;;4988610;28;20272;-67
2022/04/15 05:43:36;;;;;;;8.73;7.17;;;9.10;99.90;;;;;;4998414;28;20667;-67
2022/04/15 05:46:04;;;;;;;7.53;6.80;;;9.10;99.90;;;;;;5003975;28;20634;-66
2022/04/15 05:48:31;;;;;;;7.83;7.10;;;9.20;99.90;;;;;;4996035;28;20202;-66
2022/04/15 05:50:58;;;;;;;7.43;6.80;;;9.20;99.90;;;;;;5003217;28;20261;-66
2022/04/15 05:53:25;;;;;;;6.83;6.13;;;9.30;99.90;;;;;;5007207;28;20205;-66
2022/04/15 05:55:51;;;;;;;7.30;6.67;;;9.50;99.90;;;;;;5007950;28;20201;-68
2022/04/15 05:58:19;;;;;;;7.80;7.10;;;9.30;99.90;;;;;;5006906;28;21138;-68
2022/04/15 06:00:47;;;;;;;7.63;6.93;;;9.40;99.90;;;;;;5007398;28;20259;-68
2022/04/15 06:03:13;;;;;;;7.43;6.70;;;9.40;99.90;;;;;;4998727;28;20687;-66
2022/04/15 06:05:40;;;;;;;6.97;6.33;;;9.40;99.90;;;;;;5005028;28;20223;-66
2022/04/15 06:08:07;;;;;;;8.03;7.30;;;9.30;99.90;;;;;;5020782;28;20612;-67
2022/04/15 06:10:34;;;;;;;7.40;6.80;;;9.30;99.90;;;;;;5007697;28;20244;-66
2022/04/15 06:13:04;;;;;;;7.20;6.57;;;9.30;99.90;;;;;;5006624;28;20216;-66
2022/04/15 06:15:32;;;;;;;7.20;6.70;;;9.30;99.90;;;;;;5008004;28;20300;-66
2022/04/15 06:17:59;;;;;;;7.70;7.00;;;9.30;99.90;;;;;;5009807;28;20283;-68
2022/04/15 06:20:26;;;;;;;8.10;7.07;;;9.30;99.90;;;;;;5009891;28;20222;-67
2022/04/15 06:22:53;;;;;;;8.30;7.50;;;9.20;99.90;;;;;;5010080;28;20206;-67
2022/04/15 06:25:20;;;;;;;7.77;7.17;;;9.30;99.90;;;;;;5010590;28;20291;-66
2022/04/15 06:27:47;;;;;;;7.43;6.73;;;9.40;99.90;;;;;;5011185;28;20205;-66
2022/04/15 06:30:13;;;;;;;6.83;6.23;;;9.40;99.90;;;;;;5002689;28;20956;-65
2022/04/15 06:32:41;;;;;;;9.27;7.40;;;9.30;99.90;;;;;;5009117;28;20210;-66
2022/04/15 06:35:09;;;;;;;7.70;6.90;;;9.40;99.90;;;;;;5010370;28;20210;-66
2022/04/15 06:37:36;;;;;;;8.07;7.37;;;9.10;99.90;;;;;;5010805;28;20228;-66
2022/04/15 06:40:03;;;;;;;7.20;6.60;;;9.10;99.90;;;;;;5010716;28;20202;-66
2022/04/15 06:42:31;;;;;;;7.20;6.60;;;9.10;99.90;;;;;;5009587;28;20253;-66
2022/04/15 06:44:59;;;;;;;7.17;6.57;;;9.10;99.90;;;;;;5009562;28;20221;-66
2022/04/15 06:47:26;;;;;;;7.43;6.60;;;9.20;99.90;;;;;;5001418;28;20212;-66
2022/04/15 06:49:54;;;;;;;7.47;6.80;;;9.20;99.90;;;;;;5010835;28;20205;-67
2022/04/15 06:52:21;;;;;;;7.30;6.60;;;9.20;99.90;;;;;;5010519;28;20256;-66
2022/04/15 06:54:47;;;;;;;6.53;6.03;;;9.20;99.90;;;;;;5010837;28;20288;-66
2022/04/15 06:57:14;;;;;;;7.47;6.80;;;9.20;99.90;;;;;;5009721;28;20209;-66
2022/04/15 06:59:41;;;;;;;6.83;6.13;;;9.10;99.90;;;;;;5010014;28;20599;-65
2022/04/15 07:02:08;;;;;;;7.20;6.50;;;9.10;99.90;;;;;;5010661;28;20205;-65
2022/04/15 07:04:35;;;;;;;6.30;5.70;;;9.10;99.90;;;;;;5010448;28;20206;-65
2022/04/15 07:07:03;;;;;;;6.57;5.80;;;9.20;99.90;;;;;;5010360;28;20208;-65
2022/04/15 07:09:30;;;;;;;6.97;5.67;;;9.20;99.90;;;;;;5009862;28;20210;-67
2022/04/15 07:11:57;;;;;;;7.47;6.83;;;9.20;99.90;;;;;;5010073;28;20679;-66
2022/04/15 07:14:24;;;;;;;8.40;6.77;;;9.10;99.90;;;;;;5007417;28;20198;-66
2022/04/15 07:16:51;;;;;;;6.93;6.33;;;9.20;99.90;;;;;;5009425;28;20213;-66
2022/04/15 07:19:18;;;;;;;6.57;6.00;;;9.30;99.90;;;;;;5009980;28;20391;-66
2022/04/15 07:21:44;;;;;;;6.37;5.87;;;9.20;99.90;;;;;;5008592;28;20680;-66
2022/04/15 07:24:12;;;;;;;6.20;5.60;;;9.20;99.90;;;;;;5009876;28;20205;-66
2022/04/15 07:26:39;;;;;;;6.47;5.60;;;9.20;99.90;;;;;;5006597;28;20616;-66
2022/04/15 07:29:06;;;;;;;6.37;5.87;;;9.30;99.90;;;;;;5008611;28;20660;-66
2022/04/15 07:31:34;;;;;;;6.77;6.27;;;9.30;99.90;;;;;;5005103;28;20660;-66
2022/04/15 07:34:00;;;;;;;6.80;6.20;;;9.20;99.90;;;;;;4996536;28;20388;-66
2022/04/15 07:36:44;;;;;;;6.07;5.47;;;9.30;99.90;;;;;;5000744;28;20201;-66
2022/04/15 07:39:15;;;;;;;7.27;6.67;;;9.30;99.90;;;;;;5009337;28;20308;-66
2022/04/15 07:41:45;;;;;;;6.20;5.70;;;9.20;99.90;;;;;;5007581;28;20201;-71
2022/04/15 07:44:13;;;;;;;6.47;5.87;;;9.30;99.90;;;;;;5002541;28;20209;-71
2022/04/15 07:46:40;;;;;;;7.47;6.30;;;9.30;99.90;;;;;;5007683;28;20241;-73
2022/04/15 07:49:07;;;;;;;6.57;6.00;;;9.30;99.90;;;;;;5006942;28;20267;-72
2022/04/15 07:51:35;;;;;;;7.97;6.70;;;9.30;99.90;;;;;;5003325;28;20236;-72
2022/04/15 07:54:02;;;;;;;6.97;6.37;;;9.30;99.90;;;;;;5008205;28;20206;-75
2022/04/15 07:56:32;;;;;;;6.50;5.93;;;9.30;99.90;;;;;;5010328;28;20291;-72
2022/04/15 07:58:59;;;;;;;7.03;5.90;;;9.60;99.90;;;;;;4990266;28;20239;-72
2022/04/15 08:01:27;;;;;;;6.97;6.33;;;9.80;99.90;;;;;;4990418;28;20229;-72
2022/04/15 08:03:54;;;;;;;6.73;6.10;;;9.90;99.90;;;;;;4998852;28;20292;-72
2022/04/15 08:06:20;;;;;;;6.63;5.90;;;9.70;99.90;;;;;;5003691;28;20251;-72
2022/04/15 08:08:47;;;;;;;6.90;6.20;;;9.50;99.90;;;;;;5008436;28;20210;-72
2022/04/15 08:11:13;;;;;;;7.50;6.63;;;9.40;99.90;;;;;;5003320;28;20205;-72
2022/04/15 08:13:41;;;;;;;7.43;6.73;;;9.20;99.90;;;;;;5000994;28;20198;-72
2022/04/15 08:16:09;;;;;;;6.87;6.17;;;9.30;99.90;;;;;;4995407;28;20214;-71
2022/04/15 08:18:35;;;;;;;7.00;6.40;;;9.40;99.90;;;;;;5009629;28;20312;-72
2022/04/15 08:21:05;;;;;;;7.53;6.83;;;9.30;99.90;;;;;;5001293;28;20206;-71
2022/04/15 08:23:31;;;;;;;9.87;6.80;;;9.30;99.90;;;;;;5003246;28;20217;-72
2022/04/15 08:25:58;;;;;;;7.10;6.40;;;9.30;99.90;;;;;;5000654;28;20603;-75
2022/04/15 08:28:24;;;;;;;7.97;7.23;;;9.40;99.90;;;;;;5007139;28;20232;-71
2022/04/15 08:30:53;;;;;;;7.90;6.67;;;9.40;99.90;;;;;;5007240;28;20236;-73
2022/04/15 08:33:20;;;;;;;7.10;6.33;;;9.30;99.90;;;;;;5001115;28;20754;-72
2022/04/15 08:35:47;;;;;;;7.87;7.17;;;9.30;99.90;;;;;;5003375;28;20242;-72
2022/04/15 08:38:14;;;;;;;9.07;7.17;;;9.30;99.90;;;;;;4991961;28;21060;-72
2022/04/15 08:40:44;;;;;;;8.07;7.27;;;9.40;99.90;;;;;;5006390;28;20210;-72
2022/04/15 08:43:11;;;;;;;9.60;8.70;;;9.40;99.90;;;;;;5005972;28;20627;-71
2022/04/15 08:45:42;;;;;;;10.00;7.73;;;9.40;99.90;;;;;;5003620;28;20229;-72
2022/04/15 08:48:10;;;;;;;7.80;7.10;;;9.40;99.90;;;;;;5005426;28;20206;-72
2022/04/15 08:50:37;;;;;;;8.10;7.30;;;9.40;99.90;;;;;;5006451;28;20323;-72
2022/04/15 08:53:04;;;;;;;8.87;7.90;;;9.40;99.90;;;;;;5005203;28;20247;-73
2022/04/15 08:55:32;;;;;;;8.03;7.23;;;9.50;99.90;;;;;;5006108;28;20205;-72
2022/04/15 08:57:59;;;;;;;8.33;7.47;;;9.50;99.90;;;;;;5010391;28;20712;-72
2022/04/15 09:00:27;;;;;;;8.93;8.10;;;9.30;99.90;;;;;;5000817;28;20233;-72
2022/04/15 09:02:55;;;;;;;8.70;7.57;;;9.30;99.90;;;;;;5006231;28;20212;-72
2022/04/15 09:05:25;;;;;;;10.40;8.07;;;9.30;99.90;;;;;;5005785;28;20509;-73
2022/04/15 09:08:04;;;;;;;8.90;7.93;;;9.30;99.90;;;;;;5006191;28;20624;-74
2022/04/15 09:10:31;;;;;;;8.60;7.80;;;9.20;99.90;;;;;;5005914;28;20220;-73
2022/04/15 09:12:57;;;;;;;9.17;8.37;;;9.20;99.90;;;;;;4999648;28;20308;-73
2022/04/15 09:15:24;;;;;;;9.33;8.33;;;9.20;99.90;;;;;;4991302;28;20724;-73
2022/04/15 09:17:52;;;;;;;9.80;8.53;;;9.10;99.90;;;;;;5005706;28;20209;-72
2022/04/15 09:20:20;;;;;;;9.23;8.50;;;9.10;99.90;;;;;;5000612;28;20230;-72
2022/04/15 09:22:53;;;;;;;10.80;9.70;;;9.10;99.90;;;;;;5005814;28;20216;-72
2022/04/15 09:25:26;;;;;;;11.50;9.03;;;9.00;99.90;;;;;;4993267;28;20691;-72
2022/04/15 09:27:55;;;;;;;9.33;8.33;;;9.00;99.90;;;;;;5002266;28;20206;-72
2022/04/15 09:30:32;;;;;;;11.70;8.93;;;9.10;99.90;;;;;;4998881;28;20206;-77
2022/04/15 09:33:01;;;;;;;11.03;9.83;;;9.10;99.90;;;;;;5005185;28;20201;-72
2022/04/15 09:35:28;;;;;;;12.67;9.60;;;9.10;99.90;;;;;;5006564;28;20209;-73
2022/04/15 09:37:59;;;;;;;11.70;9.10;;;9.10;99.90;;;;;;5007245;28;20213;-73
2022/04/15 09:40:27;;;;;;;9.73;8.73;;;9.00;99.90;;;;;;4995076;28;20372;-74
2022/04/15 09:42:55;;;;;;;13.23;11.73;;;9.00;99.90;;;;;;4987733;28;20726;-74
2022/04/15 09:45:24;;;;;;;10.67;9.67;;;9.00;99.90;;;;;;4987098;28;20285;-73
2022/04/15 09:47:52;;;;;;;9.50;8.53;;;9.00;99.90;;;;;;4987044;28;20284;-74
2022/04/15 09:50:23;;;;;;;12.07;8.80;;;9.00;99.90;;;;;;4988677;28;20234;-74
2022/04/15 09:52:51;;;;;;;11.67;8.47;;;9.00;99.90;;;;;;5012108;28;20220;-73
2022/04/15 09:55:20;;;;;;;8.63;7.73;;;9.10;99.90;;;;;;5014385;28;20237;-74
2022/04/15 09:57:48;;;;;;;9.67;8.00;;;9.10;99.90;;;;;;5014853;28;20213;-73
2022/04/15 10:00:16;;;;;;;8.03;7.23;;;9.20;99.90;;;;;;5014460;28;20274;-73
2022/04/15 10:02:43;;;;;;;8.87;7.73;;;9.40;99.90;;;;;;5014625;28;20251;-73
2022/04/15 10:05:12;;;;;;;7.57;6.87;;;9.40;99.90;;;;;;5014584;28;20318;-73
2022/04/15 10:07:40;;;;;;;7.53;6.80;;;9.40;99.90;;;;;;5013124;28;20261;-74
2022/04/15 10:10:09;;;;;;;7.60;6.90;;;9.40;99.90;;;;;;5014239;28;20212;-73
2022/04/15 10:12:39;;;;;;;8.47;7.50;;;9.20;99.90;;;;;;5012677;28;20664;-73
2022/04/15 10:15:09;;;;;;;8.13;7.33;;;9.30;99.90;;;;;;5014220;28;20213;-73
2022/04/15 10:17:37;;;;;;;7.43;6.77;;;9.30;99.90;;;;;;5015091;28;20252;-72
2022/04/15 10:20:04;;;;;;;7.60;6.93;;;9.30;99.90;;;;;;5014394;28;20263;-73
2022/04/15 10:22:32;;;;;;;7.90;6.90;;;9.40;99.90;;;;;;5014485;28;20202;-73
2022/04/15 10:24:59;;;;;;;7.47;6.67;;;9.50;99.90;;;;;;5013641;28;20762;-73
2022/04/15 10:27:29;;;;;;;7.73;6.50;;;9.50;99.90;;;;;;5014438;28;20209;-73
2022/04/15 10:30:14;;;;;;;7.43;6.37;;;9.60;99.90;;;;;;5014179;28;20629;-73
2022/04/15 10:32:52;;;;;;;6.80;6.20;;;9.60;99.90;;;;;;5004270;28;20206;-73
2022/04/15 10:35:27;;;;;;;6.40;5.83;;;9.60;99.90;;;;;;4995221;28;20214;-73
2022/04/15 10:37:55;;;;;;;6.47;5.93;;;9.70;99.90;;;;;;4994768;28;20202;-73
2022/04/15 10:40:24;;;;;;;7.33;5.97;;;9.80;99.90;;;;;;4994365;28;20237;-73
2022/04/15 10:42:51;;;;;;;6.80;5.83;;;9.90;99.90;;;;;;4994678;28;20342;-73
2022/04/15 10:45:29;;;;;;;7.47;6.10;;;9.90;99.90;;;;;;4994093;28;20724;-73
2022/04/15 10:47:59;;;;;;;6.33;5.17;;;9.90;99.90;;;;;;5003444;28;20217;-73
2022/04/15 10:50:28;;;;;;;6.37;5.87;;;9.90;99.90;;;;;;5013515;28;20720;-73
2022/04/15 10:53:16;;;;;;;6.37;5.40;;;10.00;99.90;;;;;;5013888;28;20209;-73
2022/04/15 10:55:45;;;;;;;5.80;5.30;;;10.00;99.90;;;;;;5014157;28;20654;-74
2022/04/15 10:58:13;;;;;;;5.30;4.90;;;9.90;99.90;;;;;;5014165;28;20578;-73
2022/04/15 11:03:28;;;;;;;4.93;4.53;;;10.00;99.90;;;;;;4995162;28;20240;-73
2022/04/15 11:05:57;;;;;;;4.33;4.03;;;10.10;99.90;;;;;;5011076;28;20209;-73
2022/04/15 11:08:26;;;;;;;4.43;4.13;;;10.00;99.90;;;;;;5011327;28;20201;-73
2022/04/15 11:11:07;;;;;;;4.17;3.87;;;10.00;99.90;;;;;;5010506;28;20668;-73
2022/04/15 11:13:59;;;;;;;4.03;3.47;;;10.10;99.90;;;;;;5010325;28;20202;-72
2022/04/15 11:16:39;;;;;;;3.30;3.10;;;10.20;99.90;;;;;;5003337;28;20308;-73
2022/04/15 11:19:07;;;;;;;3.20;3.00;;;10.20;99.90;;;;;;5010925;28;20306;-74
2022/04/15 11:21:37;;;;;;;3.40;3.20;;;10.30;99.90;;;;;;5011146;28;20260;-73
2022/04/15 11:24:05;;;;;;;2.80;2.60;;;10.30;99.90;;;;;;5011152;28;20716;-73
2022/04/15 11:26:33;;;;;;;2.50;2.40;;;10.20;99.90;;;;;;5017210;28;20264;-73
2022/04/15 11:29:03;;;;;;;3.17;2.93;;;10.10;99.90;;;;;;5010312;28;20229;-73
2022/04/15 11:31:32;;;;;;;2.53;2.43;;;10.20;99.90;;;;;;5008142;28;20209;-73
2022/04/15 11:34:05;;;;;;;2.77;2.50;;;10.40;99.90;;;;;;5010223;28;20209;-73
2022/04/15 11:36:32;;;;;;;2.40;2.30;;;10.40;99.90;;;;;;5010511;28;20193;-73
2022/04/15 11:39:01;;;;;;;3.00;2.80;;;10.50;99.90;;;;;;5009912;28;20209;-73
2022/04/15 11:41:28;;;;;;;3.13;2.93;;;10.50;99.90;;;;;;5010240;28;20279;-73
2022/04/15 11:43:57;;;;;;;2.77;2.57;;;10.60;99.90;;;;;;5009702;28;20210;-73
2022/04/15 11:46:23;;;;;;;3.10;2.83;;;10.50;99.90;;;;;;5008337;28;20212;-73
2022/04/15 11:48:54;;;;;;;2.63;2.50;;;10.50;99.90;;;;;;5009950;28;20209;-73
2022/04/15 11:51:23;;;;;;;2.20;2.10;;;10.40;99.90;;;;;;5008417;28;20235;-73
2022/04/15 11:53:50;;;;;;;2.70;2.50;;;10.40;99.90;;;;;;5009758;28;20268;-72
2022/04/15 11:56:17;;;;;;;2.60;2.40;;;10.40;99.90;;;;;;5010075;28;20212;-73
2022/04/15 11:58:44;;;;;;;2.43;2.23;;;10.40;99.90;;;;;;5009946;28;20210;-73
2022/04/15 12:01:11;;;;;;;2.30;2.20;;;10.40;99.90;;;;;;4991414;28;20226;-73
2022/04/15 12:03:43;;;;;;;2.27;2.17;;;10.50;99.90;;;;;;4990397;28;20214;-73
2022/04/15 12:06:10;;;;;;;2.20;2.10;;;10.60;99.90;;;;;;4990249;28;20198;-73
2022/04/15 12:08:37;;;;;;;2.20;2.00;;;10.70;99.90;;;;;;4990385;28;20264;-73
2022/04/15 12:11:07;;;;;;;2.00;1.90;;;10.70;99.90;;;;;;4989845;28;20210;-73
2022/04/15 12:13:34;;;;;;;2.20;2.10;;;10.80;99.90;;;;;;5008856;28;20267;-73
2022/04/15 12:16:01;;;;;;;2.40;2.30;;;10.90;99.90;;;;;;5009624;28;20205;-73
2022/04/15 12:18:28;;;;;;;4.53;4.13;;;10.90;99.90;;;;;;5009619;28;20220;-73
2022/04/15 12:20:54;;;;;;;2.80;2.60;;;10.90;99.90;;;;;;5009109;28;20335;-73
2022/04/15 12:23:25;;;;;;;2.80;2.60;;;10.90;99.90;;;;;;5009654;28;20236;-73
2022/04/15 12:26:09;;;;;;;2.23;2.13;;;10.90;99.90;;;;;;5008712;28;20746;-73
2022/04/15 12:31:32;;;;;;;2.63;2.43;;;10.90;99.90;;;;;;4989609;28;20681;-73
2022/04/15 12:34:00;;;;;;;2.50;2.30;;;10.80;99.90;;;;;;4989384;28;20210;-73
2022/04/15 12:36:39;;;;;;;2.47;2.27;;;10.70;99.90;;;;;;4989444;28;20206;-73
2022/04/15 12:39:08;;;;;;;2.40;2.30;;;10.60;99.90;;;;;;4989344;28;20208;-73
2022/04/15 12:41:42;;;;;;;2.37;2.17;;;10.70;99.90;;;;;;5007795;28;20259;-73
2022/04/15 12:44:14;;;;;;;2.03;1.93;;;10.70;99.90;;;;;;5009343;28;20256;-74
2022/04/15 12:46:43;;;;;;;2.50;2.37;;;10.70;99.90;;;;;;5008617;28;20571;-74
2022/04/15 12:49:22;;;;;;;2.53;2.40;;;10.70;99.90;;;;;;5009178;28;20221;-74
2022/04/15 12:51:49;;;;;;;2.80;2.60;;;10.80;99.90;;;;;;5008749;28;20298;-73
2022/04/15 12:54:17;;;;;;;2.40;2.20;;;10.90;99.90;;;;;;5008310;28;20206;-73
2022/04/15 12:56:54;;;;;;;2.70;2.50;;;10.90;99.90;;;;;;5008891;28;20201;-74
2022/04/15 12:59:22;;;;;;;2.23;2.13;;;11.00;99.90;;;;;;5008993;28;20248;-73
2022/04/15 13:01:48;;;;;;;2.30;2.20;;;10.90;99.90;;;;;;5009001;28;20216;-74
2022/04/15 13:04:15;;;;;;;2.33;2.23;;;10.90;99.90;;;;;;5008957;28;20307;-74